createdAt,value
2018-09-11T00:01:47.729Z,4.13
2018-09-11T00:04:16.347Z,3.93
2018-09-11T00:06:44.849Z,3.37
2018-09-11T00:09:14.145Z,3.93
2018-09-11T00:11:43.707Z,3.87
2018-09-11T00:14:12.330Z,3.80
2018-09-11T00:16:40.996Z,3.50
2018-09-11T00:19:09.553Z,4.07
2018-09-11T00:21:38.068Z,4.00
2018-09-11T00:24:06.660Z,3.80
2018-09-11T00:26:35.244Z,4.13
2018-09-11T00:29:03.737Z,3.67
2018-09-11T00:31:32.345Z,4.03
2018-09-11T00:34:00.868Z,4.07
2018-09-11T00:36:29.625Z,4.90
2018-09-11T00:38:58.120Z,3.63
2018-09-11T00:41:26.561Z,4.37
2018-09-11T00:43:55.196Z,3.30
2018-09-11T00:46:23.709Z,4.13
2018-09-11T00:48:52.398Z,3.90
2018-09-11T00:51:20.945Z,3.40
2018-09-11T00:53:49.375Z,3.50
2018-09-11T00:56:17.872Z,3.40
2018-09-11T00:58:46.321Z,3.60
2018-09-11T01:01:14.756Z,3.50
2018-09-11T01:03:43.293Z,3.63
2018-09-11T01:06:11.771Z,3.40
2018-09-11T01:08:40.220Z,3.60
2018-09-11T01:11:10.643Z,3.40
2018-09-11T01:13:39.075Z,3.70
2018-09-11T01:16:08.670Z,3.97
2018-09-11T01:18:37.131Z,4.30
2018-09-11T01:21:05.718Z,3.33
2018-09-11T01:23:34.199Z,3.27
2018-09-11T01:26:02.697Z,3.30
2018-09-11T01:28:31.137Z,3.50
2018-09-11T01:30:59.632Z,3.53
2018-09-11T01:33:28.129Z,3.97
2018-09-11T01:35:56.654Z,3.33
2018-09-11T01:38:25.237Z,3.70
2018-09-11T01:40:53.813Z,3.57
2018-09-11T01:43:22.243Z,3.80
2018-09-11T01:45:50.778Z,3.87
2018-09-11T01:48:19.305Z,3.30
2018-09-11T01:50:47.731Z,3.73
2018-09-11T01:53:16.223Z,4.50
2018-09-11T01:55:44.659Z,4.17
2018-09-11T01:58:13.096Z,3.77
2018-09-11T02:00:41.569Z,3.87
2018-09-11T02:03:10.045Z,3.73
2018-09-11T02:05:38.460Z,4.13
2018-09-11T02:08:07.046Z,3.70
2018-09-11T02:10:35.521Z,3.63
2018-09-11T02:13:03.971Z,4.00
2018-09-11T02:15:32.424Z,4.40
2018-09-11T02:18:00.847Z,3.50
2018-09-11T02:20:29.391Z,4.63
2018-09-11T02:22:57.816Z,4.07
2018-09-11T02:25:26.298Z,3.70
2018-09-11T02:27:54.816Z,4.27
2018-09-11T02:30:23.377Z,4.07
2018-09-11T02:32:51.814Z,3.70
2018-09-11T02:35:20.255Z,4.07
2018-09-11T02:37:48.884Z,3.50
2018-09-11T02:40:17.333Z,4.50
2018-09-11T02:42:45.744Z,3.50
2018-09-11T02:45:14.177Z,4.23
2018-09-11T02:47:42.620Z,4.40
2018-09-11T02:50:11.159Z,3.77
2018-09-11T02:52:39.782Z,3.87
2018-09-11T02:55:08.683Z,3.93
2018-09-11T02:57:37.134Z,3.83
2018-09-11T03:00:05.592Z,4.03
2018-09-11T03:02:34.008Z,3.67
2018-09-11T03:05:02.502Z,4.37
2018-09-11T03:07:30.955Z,3.60
2018-09-11T03:09:59.423Z,3.67
2018-09-11T03:12:27.843Z,3.33
2018-09-11T03:14:56.261Z,3.50
2018-09-11T03:17:24.821Z,3.43
2018-09-11T03:19:53.340Z,3.57
2018-09-11T03:22:21.750Z,3.37
2018-09-11T03:24:50.273Z,2.70
2018-09-11T03:27:18.773Z,3.27
2018-09-11T03:29:47.248Z,3.80
2018-09-11T03:32:15.799Z,3.53
2018-09-11T03:34:44.240Z,3.10
2018-09-11T03:37:12.659Z,2.90
2018-09-11T03:39:41.083Z,3.00
2018-09-11T03:42:09.532Z,3.17
2018-09-11T03:44:37.989Z,2.90
2018-09-11T03:47:06.415Z,3.37
2018-09-11T03:49:34.875Z,3.07
2018-09-11T03:52:03.445Z,3.20
2018-09-11T03:54:31.905Z,2.93
2018-09-11T03:57:00.390Z,3.27
2018-09-11T03:59:28.805Z,2.80
2018-09-11T04:01:57.279Z,2.80
2018-09-11T04:04:25.713Z,3.23
2018-09-11T04:06:54.158Z,2.70
2018-09-11T04:09:22.748Z,2.57
2018-09-11T04:11:51.241Z,2.80
2018-09-11T04:14:19.716Z,2.70
2018-09-11T04:16:48.154Z,2.80
2018-09-11T04:19:16.604Z,3.23
2018-09-11T04:21:45.474Z,3.27
2018-09-11T04:24:13.974Z,3.00
2018-09-11T04:26:42.691Z,2.87
2018-09-11T04:29:11.335Z,2.60
2018-09-11T04:31:39.785Z,2.73
2018-09-11T04:34:08.347Z,2.90
2018-09-11T04:36:36.850Z,3.37
2018-09-11T04:39:07.156Z,2.77
2018-09-11T04:41:35.692Z,2.73
2018-09-11T04:44:04.172Z,2.70
2018-09-11T04:46:32.628Z,2.80
2018-09-11T04:49:01.088Z,2.87
2018-09-11T04:51:29.591Z,3.10
2018-09-11T04:53:58.142Z,2.87
2018-09-11T04:56:26.602Z,2.83
2018-09-11T04:58:55.014Z,2.97
2018-09-11T05:01:23.506Z,2.73
2018-09-11T05:03:51.919Z,3.53
2018-09-11T05:06:20.446Z,3.00
2018-09-11T05:08:48.897Z,3.07
2018-09-11T05:11:17.384Z,2.30
2018-09-11T05:13:45.838Z,3.13
2018-09-11T05:16:14.265Z,2.83
2018-09-11T05:18:42.711Z,2.60
2018-09-11T05:21:11.138Z,3.23
2018-09-11T05:23:39.600Z,2.70
2018-09-11T05:26:08.100Z,3.30
2018-09-11T05:28:36.549Z,2.73
2018-09-11T05:31:05.425Z,3.00
2018-09-11T05:33:33.877Z,3.73
2018-09-11T05:36:02.300Z,4.80
2018-09-11T05:38:30.843Z,3.80
2018-09-11T05:40:59.275Z,3.23
2018-09-11T05:43:27.738Z,2.60
2018-09-11T05:45:56.191Z,3.10
2018-09-11T05:48:24.637Z,2.90
2018-09-11T05:50:53.098Z,2.60
2018-09-11T05:53:21.548Z,2.80
2018-09-11T05:55:49.993Z,3.40
2018-09-11T05:58:18.634Z,3.10
2018-09-11T06:00:47.049Z,3.10
2018-09-11T06:03:15.557Z,3.20
2018-09-11T06:05:44.045Z,3.57
2018-09-11T06:08:12.458Z,3.40
2018-09-11T06:10:40.920Z,3.63
2018-09-11T06:13:09.400Z,3.03
2018-09-11T06:15:37.867Z,3.93
2018-09-11T06:18:06.482Z,2.90
2018-09-11T06:20:34.915Z,3.33
2018-09-11T06:23:03.345Z,3.33
2018-09-11T06:25:38.415Z,2.97
2018-09-11T06:28:06.870Z,3.10
2018-09-11T06:30:36.413Z,3.30
2018-09-11T06:33:04.893Z,3.47
2018-09-11T06:35:33.386Z,3.00
2018-09-11T06:38:01.777Z,2.97
2018-09-11T06:40:30.229Z,3.30
2018-09-11T06:42:58.713Z,3.30
2018-09-11T06:45:27.185Z,2.90
2018-09-11T06:47:55.688Z,3.13
2018-09-11T06:50:24.118Z,2.87
2018-09-11T06:52:52.572Z,3.10
2018-09-11T06:55:21.002Z,3.07
2018-09-11T06:57:49.437Z,2.77
2018-09-11T07:00:17.955Z,2.57
2018-09-11T07:02:46.361Z,2.57
2018-09-11T07:05:14.801Z,2.17
2018-09-11T07:07:43.360Z,2.90
2018-09-11T07:10:11.816Z,2.33
2018-09-11T07:12:41.193Z,2.30
2018-09-11T07:15:09.645Z,2.13
2018-09-11T07:17:38.146Z,2.20
2018-09-11T07:20:07.707Z,2.37
2018-09-11T07:22:36.076Z,2.20
2018-09-11T07:25:04.809Z,2.57
2018-09-11T07:27:33.263Z,2.63
2018-09-11T07:30:01.712Z,2.30
2018-09-11T07:32:30.233Z,2.30
2018-09-11T07:34:58.689Z,2.20
2018-09-11T07:37:27.133Z,2.40
2018-09-11T07:39:55.542Z,2.20
2018-09-11T07:42:23.973Z,2.40
2018-09-11T07:44:52.408Z,2.47
2018-09-11T07:47:20.854Z,2.10
2018-09-11T07:49:49.314Z,2.57
2018-09-11T07:52:17.757Z,2.40
2018-09-11T07:54:46.244Z,2.33
2018-09-11T07:57:14.660Z,2.10
2018-09-11T07:59:43.127Z,2.27
2018-09-11T08:02:11.556Z,2.33
2018-09-11T08:04:40.012Z,2.60
2018-09-11T08:07:08.464Z,2.00
2018-09-11T08:09:36.965Z,1.73
2018-09-11T08:12:05.441Z,2.30
2018-09-11T08:14:33.822Z,2.23
2018-09-11T08:17:02.289Z,1.70
2018-09-11T08:19:30.752Z,1.80
2018-09-11T08:21:59.202Z,1.90
2018-09-11T08:24:27.657Z,1.73
2018-09-11T08:26:56.109Z,1.43
2018-09-11T08:29:24.722Z,1.60
2018-09-11T08:31:53.252Z,1.50
2018-09-11T08:34:21.812Z,1.37
2018-09-11T08:36:50.288Z,1.30
2018-09-11T08:39:18.764Z,1.53
2018-09-11T08:41:47.196Z,1.17
2018-09-11T08:44:15.679Z,2.22
2018-09-11T08:46:44.191Z,2.30
2018-09-11T08:49:12.604Z,1.22
2018-09-11T08:51:41.050Z,1.47
2018-09-11T08:54:09.452Z,1.47
2018-09-11T08:56:37.906Z,1.42
2018-09-11T08:59:06.388Z,1.12
2018-09-11T09:01:34.848Z,1.30
2018-09-11T09:04:03.281Z,1.60
2018-09-11T09:06:31.759Z,1.70
2018-09-11T09:09:03.332Z,1.50
2018-09-11T09:11:31.772Z,1.50
2018-09-11T09:14:00.426Z,1.35
2018-09-11T09:16:29.134Z,1.30
2018-09-11T09:18:58.114Z,1.30
2018-09-11T09:21:26.827Z,1.50
2018-09-11T09:23:55.704Z,1.50
2018-09-11T09:26:24.419Z,1.42
2018-09-11T09:28:53.195Z,1.05
2018-09-11T09:31:21.984Z,1.25
2018-09-11T09:33:50.789Z,1.55
2018-09-11T09:36:19.430Z,1.60
2018-09-11T09:38:47.850Z,1.98
2018-09-11T09:41:16.491Z,1.45
2018-09-11T09:43:44.971Z,1.35
2018-09-11T09:46:13.428Z,1.77
2018-09-11T09:48:41.912Z,2.05
2018-09-11T09:51:10.365Z,1.80
2018-09-11T09:53:38.835Z,1.80
2018-09-11T09:56:07.324Z,1.30
2018-09-11T09:58:35.791Z,1.20
2018-09-11T10:01:09.533Z,1.40
2018-09-11T10:03:38.033Z,1.45
2018-09-11T10:06:06.499Z,1.45
2018-09-11T10:08:35.234Z,1.27
2018-09-11T10:11:03.792Z,1.40
2018-09-11T10:13:32.304Z,1.30
2018-09-11T10:16:00.699Z,1.62
2018-09-11T10:18:29.140Z,1.52
2018-09-11T10:20:57.574Z,1.75
2018-09-11T10:23:26.022Z,1.70
2018-09-11T10:25:54.474Z,1.32
2018-09-11T10:28:22.893Z,1.85
2018-09-11T10:30:51.367Z,1.50
2018-09-11T10:33:19.797Z,1.50
2018-09-11T10:35:48.248Z,1.45
2018-09-11T10:38:17.069Z,2.08
2018-09-11T10:40:45.577Z,1.50
2018-09-11T10:43:14.067Z,1.57
2018-09-11T10:45:42.749Z,1.77
2018-09-11T10:48:11.253Z,2.00
2018-09-11T10:50:39.731Z,1.95
2018-09-11T10:53:08.195Z,1.80
2018-09-11T10:55:36.656Z,2.00
2018-09-11T10:58:05.623Z,2.27
2018-09-11T11:00:34.179Z,2.15
2018-09-11T11:03:02.810Z,1.90
2018-09-11T11:05:31.254Z,2.20
2018-09-11T11:07:59.763Z,1.63
2018-09-11T11:10:28.276Z,1.80
2018-09-11T11:12:56.738Z,2.50
2018-09-11T11:15:25.185Z,2.50
2018-09-11T11:17:53.605Z,2.13
2018-09-11T11:20:22.079Z,2.10
2018-09-11T11:22:50.477Z,1.73
2018-09-11T11:25:19.014Z,2.20
2018-09-11T11:27:47.441Z,1.97
2018-09-11T11:30:15.868Z,1.90
2018-09-11T11:32:44.336Z,1.93
2018-09-11T11:35:12.753Z,2.00
2018-09-11T11:37:41.214Z,2.57
2018-09-11T11:40:09.644Z,2.17
2018-09-11T11:42:38.214Z,2.20
2018-09-11T11:45:07.670Z,3.40
2018-09-11T11:47:36.162Z,2.13
2018-09-11T11:50:04.708Z,2.30
2018-09-11T11:52:33.220Z,2.43
2018-09-11T11:55:01.695Z,2.20
2018-09-11T11:57:30.808Z,1.90
2018-09-11T11:59:59.288Z,2.00
2018-09-11T12:02:27.730Z,2.23
2018-09-11T12:04:56.537Z,2.17
2018-09-11T12:07:25.065Z,2.23
2018-09-11T12:09:53.588Z,2.00
2018-09-11T12:12:22.212Z,2.20
2018-09-11T12:14:50.736Z,2.30
2018-09-11T12:17:19.257Z,2.00
2018-09-11T12:19:47.738Z,2.47
2018-09-11T12:22:16.253Z,1.90
2018-09-11T12:24:44.720Z,2.40
2018-09-11T12:27:13.177Z,2.23
2018-09-11T12:29:41.661Z,2.23
2018-09-11T12:32:10.159Z,2.93
2018-09-11T12:34:38.595Z,2.60
2018-09-11T12:37:07.115Z,2.47
2018-09-11T12:39:35.607Z,2.10
2018-09-11T12:42:04.084Z,2.17
2018-09-11T12:44:32.532Z,2.60
2018-09-11T12:47:01.083Z,2.50
2018-09-11T12:49:29.473Z,2.33
2018-09-11T12:51:57.953Z,2.23
2018-09-11T12:54:26.400Z,2.23
2018-09-11T12:56:54.854Z,2.23
2018-09-11T12:59:23.470Z,2.20
2018-09-11T13:01:51.903Z,2.40
2018-09-11T13:04:20.341Z,2.37
2018-09-11T13:06:48.800Z,2.17
2018-09-11T13:09:17.420Z,2.20
2018-09-11T13:11:45.813Z,2.50
2018-09-11T13:14:14.289Z,2.20
2018-09-11T13:16:44.166Z,2.70
2018-09-11T13:19:12.625Z,2.10
2018-09-11T13:21:41.074Z,2.33
2018-09-11T13:24:09.628Z,2.83
2018-09-11T13:26:38.114Z,2.27
2018-09-11T13:29:06.609Z,2.73
2018-09-11T13:31:35.084Z,2.40
2018-09-11T13:34:03.573Z,2.20
2018-09-11T13:36:32.037Z,2.17
2018-09-11T13:39:00.835Z,2.23
2018-09-11T13:41:29.300Z,1.87
2018-09-11T13:43:57.724Z,2.50
2018-09-11T13:46:26.208Z,2.40
2018-09-11T13:48:54.708Z,2.60
2018-09-11T13:51:23.335Z,2.40
2018-09-11T13:53:51.895Z,2.20
2018-09-11T13:56:20.351Z,2.40
2018-09-11T13:58:48.950Z,2.17
2018-09-11T14:01:17.433Z,2.27
2018-09-11T14:03:45.948Z,2.40
2018-09-11T14:06:14.552Z,2.67
2018-09-11T14:08:43.030Z,2.80
2018-09-11T14:11:11.558Z,3.27
2018-09-11T14:13:40.013Z,2.37
2018-09-11T14:16:08.581Z,2.40
2018-09-11T14:18:39.018Z,2.50
2018-09-11T14:21:07.610Z,2.40
2018-09-11T14:23:36.087Z,2.63
2018-09-11T14:26:04.709Z,2.77
2018-09-11T14:28:33.224Z,3.07
2018-09-11T14:31:01.776Z,2.27
2018-09-11T14:33:30.257Z,2.87
2018-09-11T14:35:58.812Z,2.30
2018-09-11T14:38:27.265Z,2.60
2018-09-11T14:40:55.748Z,2.10
2018-09-11T14:43:24.203Z,2.43
2018-09-11T14:45:52.756Z,2.33
2018-09-11T14:48:21.217Z,3.60
2018-09-11T14:50:49.650Z,2.97
2018-09-11T14:53:18.308Z,2.43
2018-09-11T14:55:46.813Z,2.60
2018-09-11T14:58:15.264Z,2.03
2018-09-11T15:00:43.760Z,2.70
2018-09-11T15:03:12.173Z,2.33
2018-09-11T15:05:40.681Z,2.50
2018-09-11T15:08:09.149Z,2.27
2018-09-11T15:10:37.591Z,2.67
2018-09-11T15:13:06.074Z,2.40
2018-09-11T15:15:34.556Z,3.60
2018-09-11T15:18:02.992Z,2.50
2018-09-11T15:20:31.474Z,2.70
2018-09-11T15:22:59.937Z,3.90
2018-09-11T15:25:28.398Z,2.90
2018-09-11T15:27:56.928Z,2.90
2018-09-11T15:30:26.059Z,2.47
2018-09-11T15:32:54.652Z,3.20
2018-09-11T15:35:23.166Z,2.37
2018-09-11T15:37:51.597Z,2.80
2018-09-11T15:40:20.104Z,2.40
2018-09-11T15:42:48.651Z,2.27
2018-09-11T15:45:17.160Z,2.33
2018-09-11T15:47:45.812Z,2.77
2018-09-11T15:50:14.257Z,3.00
2018-09-11T15:52:42.761Z,3.00
2018-09-11T15:55:11.273Z,4.00
2018-09-11T15:57:39.917Z,3.43
2018-09-11T16:00:08.490Z,3.17
2018-09-11T16:02:38.250Z,2.83
2018-09-11T16:05:06.734Z,5.17
2018-09-11T16:07:35.176Z,4.70
2018-09-11T16:10:03.774Z,3.80
2018-09-11T16:12:32.286Z,4.10
2018-09-11T16:15:00.757Z,2.87
2018-09-11T16:17:29.334Z,2.97
2018-09-11T16:19:57.835Z,2.60
2018-09-11T16:22:26.293Z,2.73
2018-09-11T16:24:54.893Z,4.10
2018-09-11T16:27:23.394Z,3.03
2018-09-11T16:29:51.919Z,3.53
2018-09-11T16:32:20.334Z,3.27
2018-09-11T16:34:48.736Z,3.47
2018-09-11T16:37:17.173Z,3.20
2018-09-11T16:39:45.906Z,2.87
2018-09-11T16:42:14.384Z,2.93
2018-09-11T16:44:42.810Z,3.10
2018-09-11T16:47:11.405Z,2.50
2018-09-11T16:49:39.839Z,2.80
2018-09-11T16:52:08.284Z,2.53
2018-09-11T16:54:36.783Z,2.60
2018-09-11T16:57:05.338Z,2.20
2018-09-11T16:59:33.782Z,2.23
2018-09-11T17:02:02.291Z,2.73
2018-09-11T17:04:30.759Z,3.50
2018-09-11T17:06:59.438Z,6.10
2018-09-11T17:09:27.887Z,5.13
2018-09-11T17:11:56.363Z,3.33
2018-09-11T17:14:24.986Z,3.20
2018-09-11T17:16:53.416Z,2.70
2018-09-11T17:19:21.836Z,2.80
2018-09-11T17:21:50.441Z,2.60
2018-09-11T17:24:19.052Z,2.80
2018-09-11T17:26:47.545Z,2.27
2018-09-11T17:29:16.093Z,2.93
2018-09-11T17:31:44.584Z,3.10
2018-09-11T17:34:13.127Z,2.70
2018-09-11T17:36:41.726Z,3.33
2018-09-11T17:39:11.511Z,2.60
2018-09-11T17:41:40.730Z,2.50
2018-09-11T17:44:09.713Z,2.33
2018-09-11T17:46:38.553Z,3.03
2018-09-11T17:49:07.068Z,3.53
2018-09-11T17:51:35.578Z,2.60
2018-09-11T17:54:04.894Z,3.37
2018-09-11T17:56:33.560Z,2.70
2018-09-11T17:59:02.027Z,2.90
2018-09-11T18:01:30.562Z,3.17
2018-09-11T18:03:59.331Z,2.80
2018-09-11T18:06:28.006Z,3.00
2018-09-11T18:08:56.915Z,4.03
2018-09-11T18:11:25.406Z,4.37
2018-09-11T18:13:54.010Z,2.60
2018-09-11T18:16:22.686Z,4.07
2018-09-11T18:18:51.204Z,2.80
2018-09-11T18:21:19.725Z,3.60
2018-09-11T18:23:48.213Z,3.40
2018-09-11T18:26:16.764Z,4.50
2018-09-11T18:28:45.168Z,2.90
2018-09-11T18:31:13.903Z,2.60
2018-09-11T18:33:42.481Z,2.67
2018-09-11T18:36:11.059Z,2.60
2018-09-11T18:38:39.551Z,2.67
2018-09-11T18:41:08.021Z,2.50
2018-09-11T18:43:36.522Z,2.97
2018-09-11T18:46:05.038Z,2.80
2018-09-11T18:54:40.277Z,5.00
2018-09-11T18:57:08.724Z,3.27
2018-09-11T18:59:37.270Z,3.00
2018-09-11T19:02:05.936Z,3.63
2018-09-11T19:04:34.442Z,2.57
2018-09-11T19:07:03.110Z,2.47
2018-09-11T19:09:31.560Z,2.70
2018-09-11T19:12:00.342Z,3.20
2018-09-11T19:14:28.856Z,3.50
2018-09-11T19:16:57.408Z,3.47
2018-09-11T19:19:25.868Z,3.80
2018-09-11T19:21:54.410Z,3.23
2018-09-11T19:24:22.936Z,3.17
2018-09-11T19:26:51.470Z,3.30
2018-09-11T19:29:19.869Z,3.43
2018-09-11T19:31:48.321Z,3.70
2018-09-11T19:34:16.856Z,3.80
2018-09-11T19:36:45.265Z,3.20
2018-09-11T19:39:13.802Z,3.03
2018-09-11T19:41:42.418Z,3.03
2018-09-11T19:44:10.946Z,3.30
2018-09-11T19:46:39.421Z,3.67
2018-09-11T19:49:07.914Z,3.27
2018-09-11T19:51:36.392Z,3.87
2018-09-11T19:54:05.001Z,2.93
2018-09-11T19:56:33.575Z,4.37
2018-09-11T19:59:02.034Z,3.97
2018-09-11T20:01:30.537Z,3.83
2018-09-11T20:03:58.980Z,4.17
2018-09-11T20:06:27.505Z,3.93
2018-09-11T20:08:56.060Z,3.60
2018-09-11T20:11:24.557Z,3.67
2018-09-11T20:13:53.045Z,3.50
2018-09-11T20:16:21.565Z,3.73
2018-09-11T20:18:50.088Z,3.50
2018-09-11T20:21:18.497Z,3.63
2018-09-11T20:23:47.069Z,3.33
2018-09-11T20:26:15.561Z,3.47
2018-09-11T20:28:44.173Z,3.80
2018-09-11T20:31:12.958Z,3.47
2018-09-11T20:33:41.596Z,3.93
2018-09-11T20:36:10.229Z,3.80
2018-09-11T20:38:38.970Z,4.27
2018-09-11T20:41:07.672Z,4.10
2018-09-11T20:43:36.394Z,4.40
2018-09-11T20:46:04.948Z,4.10
2018-09-11T20:48:34.891Z,3.50
2018-09-11T20:51:03.326Z,4.10
2018-09-11T20:53:31.757Z,3.67
2018-09-11T20:56:08.477Z,4.03
2018-09-11T20:58:36.947Z,4.00
2018-09-11T21:01:05.456Z,4.10
2018-09-11T21:03:33.927Z,4.00
2018-09-11T21:06:02.527Z,3.90
2018-09-11T21:08:30.987Z,3.80
2018-09-11T21:10:59.456Z,3.17
2018-09-11T21:13:27.933Z,4.27
2018-09-11T21:15:56.422Z,4.63
2018-09-11T21:18:24.845Z,4.20
2018-09-11T21:20:53.338Z,4.30
2018-09-11T21:23:21.854Z,4.53
2018-09-11T21:25:50.342Z,3.80
2018-09-11T21:28:18.844Z,3.83
2018-09-11T21:30:47.345Z,4.03
2018-09-11T21:33:15.817Z,3.73
2018-09-11T21:35:44.360Z,4.70
2018-09-11T21:38:13.003Z,4.77
2018-09-11T21:40:41.546Z,4.17
2018-09-11T21:43:10.072Z,4.60
2018-09-11T21:45:38.699Z,4.10
2018-09-11T21:48:07.192Z,4.27
2018-09-11T21:50:35.649Z,4.53
2018-09-11T21:53:04.162Z,4.83
2018-09-11T21:55:32.617Z,3.87
2018-09-11T21:58:01.087Z,3.77
2018-09-11T22:00:29.635Z,4.40
2018-09-11T22:02:58.539Z,4.17
2018-09-11T22:05:26.986Z,4.47
2018-09-11T22:07:55.449Z,3.73
2018-09-11T22:10:23.983Z,4.70
2018-09-11T22:12:52.453Z,3.97
2018-09-11T22:15:21.119Z,4.23
2018-09-11T22:17:49.575Z,4.17
2018-09-11T22:20:18.026Z,3.90
2018-09-11T22:22:46.459Z,5.43
2018-09-11T22:25:18.809Z,4.20
2018-09-11T22:27:47.261Z,4.30
2018-09-11T22:30:15.730Z,3.57
2018-09-11T22:32:44.149Z,4.27
2018-09-11T22:35:12.573Z,4.17
2018-09-11T22:37:41.056Z,3.90
2018-09-11T22:40:11.581Z,4.00
2018-09-11T22:42:43.870Z,4.30
2018-09-11T22:45:12.551Z,4.60
2018-09-11T22:47:41.035Z,3.80
2018-09-11T22:50:09.534Z,4.03
2018-09-11T22:52:37.946Z,4.53
2018-09-11T22:55:06.565Z,4.10
2018-09-11T22:57:35.097Z,4.40
2018-09-11T23:00:03.919Z,3.90
2018-09-11T23:02:32.469Z,3.83
2018-09-11T23:05:01.065Z,4.43
2018-09-11T23:07:29.514Z,3.80
2018-09-11T23:09:57.945Z,3.70
2018-09-11T23:12:26.434Z,3.87
2018-09-11T23:14:54.880Z,3.90
2018-09-11T23:17:23.294Z,4.10
2018-09-11T23:19:51.710Z,4.23
2018-09-11T23:22:20.119Z,3.93
2018-09-11T23:24:48.624Z,3.63
2018-09-11T23:27:17.116Z,3.53
2018-09-11T23:29:45.542Z,3.77
2018-09-11T23:32:13.969Z,4.10
2018-09-11T23:34:42.407Z,4.20
2018-09-11T23:37:10.936Z,4.23
2018-09-11T23:39:39.699Z,3.70
2018-09-11T23:42:08.349Z,3.77
2018-09-11T23:44:37.038Z,3.63
2018-09-11T23:47:05.561Z,4.17
2018-09-11T23:49:33.977Z,4.00
2018-09-11T23:52:02.437Z,3.90
2018-09-11T23:54:30.884Z,3.67
2018-09-11T23:56:59.298Z,3.67
2018-09-11T23:59:27.705Z,3.97
